createdAt,value
2022-12-28T00:01:52.915Z,34.38
2022-12-28T00:04:20.910Z,34.58
2022-12-28T00:06:50.670Z,37.13
2022-12-28T00:09:20.097Z,35.17
2022-12-28T00:11:48.255Z,36.38
2022-12-28T00:14:16.136Z,34.85
2022-12-28T00:16:44.756Z,30.45
2022-12-28T00:19:14.593Z,30.73
2022-12-28T00:21:42.832Z,30.38
2022-12-28T00:24:20.325Z,27.65
2022-12-28T00:26:48.334Z,27.27
2022-12-28T00:29:16.494Z,31.70
2022-12-28T00:31:45.759Z,27.75
2022-12-28T00:34:13.908Z,31.00
2022-12-28T00:37:10.645Z,30.10
2022-12-28T00:39:31.417Z,30.90
2022-12-28T00:41:59.424Z,29.38
2022-12-28T00:44:27.386Z,29.88
2022-12-28T00:46:55.901Z,26.02
2022-12-28T00:49:23.805Z,29.65
2022-12-28T00:51:51.761Z,27.42
2022-12-28T00:54:19.715Z,26.08
2022-12-28T00:56:48.982Z,26.05
2022-12-28T00:59:17.428Z,26.10
2022-12-28T01:01:45.511Z,22.27
2022-12-28T01:04:13.596Z,22.08
2022-12-28T01:06:41.590Z,25.20
2022-12-28T01:09:09.564Z,23.08
2022-12-28T01:11:37.482Z,25.33
2022-12-28T01:14:06.814Z,23.40
2022-12-28T01:16:37.163Z,23.73
2022-12-28T01:19:07.305Z,24.38
2022-12-28T01:21:36.978Z,21.15
2022-12-28T01:24:07.809Z,20.35
2022-12-28T01:26:36.019Z,21.25
2022-12-28T01:29:05.845Z,19.90
2022-12-28T01:31:34.227Z,19.58
2022-12-28T01:34:02.459Z,19.58
2022-12-28T01:36:32.423Z,22.30
2022-12-28T01:39:02.726Z,22.27
2022-12-28T01:41:31.925Z,20.73
2022-12-28T01:44:40.111Z,21.38
2022-12-28T01:47:11.468Z,20.77
2022-12-28T01:49:44.336Z,20.77
2022-12-28T01:52:16.092Z,19.63
2022-12-28T01:54:47.050Z,22.85
2022-12-28T01:57:16.201Z,21.55
2022-12-28T01:59:48.629Z,23.58
2022-12-28T02:04:46.498Z,19.13
2022-12-28T02:07:19.935Z,23.92
2022-12-28T02:10:40.749Z,23.70
2022-12-28T02:12:37.012Z,23.75
2022-12-28T02:15:07.202Z,22.25
2022-12-28T02:17:35.300Z,21.63
2022-12-28T02:20:03.601Z,24.25
2022-12-28T02:22:58.624Z,21.23
2022-12-28T02:26:10.187Z,22.80
2022-12-28T02:29:11.005Z,21.00
2022-12-28T02:31:45.178Z,22.88
2022-12-28T02:34:20.650Z,24.13
2022-12-28T02:36:54.918Z,23.83
2022-12-28T02:39:29.605Z,21.52
2022-12-28T02:41:58.343Z,23.98
2022-12-28T02:44:45.028Z,19.75
2022-12-28T02:47:34.380Z,22.73
2022-12-28T02:50:08.859Z,21.80
2022-12-28T02:52:58.079Z,22.10
2022-12-28T02:56:00.651Z,23.35
2022-12-28T02:58:55.681Z,24.65
2022-12-28T03:01:37.632Z,21.48
2022-12-28T03:04:13.998Z,23.05
2022-12-28T03:07:06.519Z,23.23
2022-12-28T03:09:41.426Z,22.33
2022-12-28T03:12:19.668Z,22.02
2022-12-28T03:14:50.274Z,23.02
2022-12-28T03:17:38.719Z,27.92
2022-12-28T03:20:28.187Z,24.98
2022-12-28T03:23:18.223Z,25.80
2022-12-28T03:26:06.272Z,26.73
2022-12-28T03:28:53.896Z,30.13
2022-12-28T03:31:24.727Z,26.60
2022-12-28T03:34:06.619Z,28.23
2022-12-28T03:36:44.178Z,29.83
2022-12-28T03:39:23.688Z,27.83
2022-12-28T03:42:13.748Z,27.00
2022-12-28T03:44:46.837Z,25.58
2022-12-28T03:47:16.799Z,27.67
2022-12-28T03:49:46.278Z,28.15
2022-12-28T03:52:14.751Z,27.90
2022-12-28T03:54:42.806Z,28.15
2022-12-28T03:57:10.791Z,23.10
2022-12-28T03:59:38.761Z,28.75
2022-12-28T04:02:06.865Z,26.42
2022-12-28T04:04:34.877Z,26.27
2022-12-28T04:07:04.166Z,28.48
2022-12-28T04:09:32.490Z,27.67
2022-12-28T04:12:00.627Z,29.30
2022-12-28T04:14:28.593Z,28.42
2022-12-28T04:16:56.518Z,27.33
2022-12-28T04:19:24.479Z,27.63
2022-12-28T04:21:52.451Z,29.20
2022-12-28T04:24:21.799Z,29.42
2022-12-28T04:26:49.866Z,30.00
2022-12-28T04:29:17.839Z,32.78
2022-12-28T04:31:45.793Z,32.80
2022-12-28T04:34:14.091Z,28.33
2022-12-28T04:36:42.674Z,31.65
2022-12-28T04:39:10.849Z,32.17
2022-12-28T04:41:40.283Z,27.42
2022-12-28T04:44:08.229Z,32.33
2022-12-28T04:46:36.264Z,30.13
2022-12-28T04:49:04.703Z,32.20
2022-12-28T04:51:35.251Z,33.22
2022-12-28T04:54:03.205Z,31.08
2022-12-28T04:56:31.597Z,31.45
2022-12-28T04:59:01.871Z,31.95
2022-12-28T05:01:30.071Z,32.28
2022-12-28T05:03:59.557Z,38.72
2022-12-28T05:06:29.370Z,41.25
2022-12-28T05:08:58.266Z,40.70
2022-12-28T05:11:28.112Z,39.45
2022-12-28T05:13:56.386Z,40.45
2022-12-28T05:16:28.497Z,43.42
2022-12-28T05:18:57.458Z,42.88
2022-12-28T05:21:27.192Z,42.58
2022-12-28T05:23:55.690Z,37.90
2022-12-28T05:26:25.789Z,37.50
2022-12-28T05:28:54.018Z,37.67
2022-12-28T05:31:23.842Z,38.10
2022-12-28T05:33:53.655Z,38.95
2022-12-28T05:36:24.212Z,34.42
2022-12-28T05:38:52.834Z,35.00
2022-12-28T05:41:22.823Z,36.15
2022-12-28T05:43:51.394Z,36.40
2022-12-28T05:46:22.015Z,35.88
2022-12-28T05:48:50.179Z,38.67
2022-12-28T05:51:22.428Z,38.10
2022-12-28T05:53:50.649Z,35.65
2022-12-28T05:56:20.371Z,34.40
2022-12-28T05:58:53.502Z,31.98
2022-12-28T06:01:23.700Z,31.85
2022-12-28T06:03:55.759Z,32.75
2022-12-28T06:06:25.612Z,37.20
2022-12-28T06:08:53.867Z,38.25
2022-12-28T06:11:23.390Z,34.97
2022-12-28T06:13:52.047Z,37.25
2022-12-28T06:16:23.083Z,38.17
2022-12-28T06:18:52.363Z,35.67
2022-12-28T06:21:21.698Z,37.78
2022-12-28T06:23:51.577Z,35.90
2022-12-28T06:26:21.623Z,37.28
2022-12-28T06:28:50.375Z,37.13
2022-12-28T06:31:20.152Z,37.58
2022-12-28T06:33:50.109Z,36.58
2022-12-28T06:36:20.443Z,41.30
2022-12-28T06:38:51.134Z,35.90
2022-12-28T06:41:21.171Z,34.00
2022-12-28T06:43:50.015Z,33.50
2022-12-28T06:46:20.076Z,37.95
2022-12-28T06:48:48.528Z,34.75
2022-12-28T06:51:18.081Z,34.13
2022-12-28T06:53:47.286Z,33.40
2022-12-28T06:56:18.310Z,36.55
2022-12-28T06:58:47.618Z,40.47
2022-12-28T07:01:17.573Z,30.77
2022-12-28T07:03:50.227Z,35.38
2022-12-28T07:06:19.905Z,31.85
2022-12-28T07:08:48.109Z,34.08
2022-12-28T07:11:19.400Z,35.25
2022-12-28T07:13:47.947Z,39.35
2022-12-28T07:16:17.627Z,32.92
2022-12-28T07:18:45.835Z,34.40
2022-12-28T07:21:16.547Z,35.95
2022-12-28T07:23:44.588Z,36.80
2022-12-28T07:26:14.764Z,37.00
2022-12-28T07:28:46.532Z,34.00
2022-12-28T07:31:16.753Z,38.22
2022-12-28T07:33:45.944Z,36.33
2022-12-28T07:36:16.169Z,34.42
2022-12-28T07:38:44.468Z,33.38
2022-12-28T07:41:14.048Z,36.28
2022-12-28T07:43:43.815Z,32.88
2022-12-28T07:46:13.697Z,31.38
2022-12-28T07:48:43.229Z,30.15
2022-12-28T07:51:14.179Z,33.45
2022-12-28T07:53:42.923Z,34.38
2022-12-28T07:56:11.701Z,31.67
2022-12-28T08:01:10.845Z,30.13
2022-12-28T08:03:39.549Z,34.22
2022-12-28T08:06:09.368Z,32.47
2022-12-28T08:08:38.179Z,34.22
2022-12-28T08:11:07.925Z,30.73
2022-12-28T08:13:37.381Z,32.40
2022-12-28T08:16:06.327Z,31.77
2022-12-28T08:18:35.852Z,31.35
2022-12-28T08:21:05.943Z,32.63
2022-12-28T08:23:34.134Z,35.28
2022-12-28T08:26:07.590Z,33.70
2022-12-28T08:28:36.441Z,33.20
2022-12-28T08:31:08.410Z,35.10
2022-12-28T08:33:37.814Z,30.73
2022-12-28T08:36:06.606Z,32.83
2022-12-28T08:38:35.125Z,33.08
2022-12-28T08:41:04.722Z,34.03
2022-12-28T08:43:33.986Z,32.00
2022-12-28T08:46:03.551Z,31.05
2022-12-28T08:48:31.612Z,32.83
2022-12-28T08:51:04.846Z,32.58
2022-12-28T08:53:32.894Z,30.98
2022-12-28T08:56:06.839Z,32.38
2022-12-28T08:58:35.077Z,33.78
2022-12-28T09:01:07.707Z,31.55
2022-12-28T09:03:37.979Z,31.83
2022-12-28T09:06:09.669Z,30.02
2022-12-28T09:08:38.348Z,28.58
2022-12-28T09:11:07.949Z,27.27
2022-12-28T09:13:36.744Z,25.90
2022-12-28T09:16:06.922Z,24.75
2022-12-28T09:18:35.888Z,24.63
2022-12-28T09:21:11.559Z,23.80
2022-12-28T09:23:39.642Z,24.83
2022-12-28T09:26:09.041Z,26.00
2022-12-28T09:28:37.665Z,25.73
2022-12-28T09:31:06.847Z,24.38
2022-12-28T09:34:32.066Z,25.50
2022-12-28T09:36:44.346Z,26.38
2022-12-28T09:39:14.541Z,25.08
2022-12-28T09:41:48.282Z,26.35
2022-12-28T09:44:44.722Z,25.60
2022-12-28T09:47:23.915Z,23.58
2022-12-28T09:50:03.446Z,23.80
2022-12-28T09:52:35.387Z,20.92
2022-12-28T09:55:11.816Z,20.70
2022-12-28T09:57:43.282Z,21.50
2022-12-28T10:00:18.891Z,22.80
2022-12-28T10:02:51.256Z,21.63
2022-12-28T10:07:50.848Z,21.33
2022-12-28T10:10:19.958Z,21.48
2022-12-28T10:12:48.892Z,21.73
2022-12-28T10:15:17.628Z,23.52
2022-12-28T10:17:46.087Z,25.23
2022-12-28T10:20:20.552Z,27.70
2022-12-28T10:22:53.435Z,30.75
2022-12-28T10:25:23.974Z,27.75
2022-12-28T10:27:52.665Z,30.88
2022-12-28T10:30:24.039Z,27.55
2022-12-28T10:33:01.330Z,27.73
2022-12-28T10:35:33.162Z,31.63
2022-12-28T10:38:05.195Z,33.30
2022-12-28T10:40:35.758Z,30.13
2022-12-28T10:43:10.212Z,34.03
2022-12-28T10:45:43.216Z,34.95
2022-12-28T10:48:16.411Z,33.80
2022-12-28T10:50:50.582Z,36.28
2022-12-28T10:53:25.386Z,39.10
2022-12-28T10:56:03.513Z,37.67
2022-12-28T10:58:33.229Z,42.25
2022-12-28T11:01:05.398Z,42.75
2022-12-28T11:03:37.038Z,40.58
2022-12-28T11:06:19.867Z,39.38
2022-12-28T11:09:06.000Z,40.88
2022-12-28T11:11:34.537Z,41.03
2022-12-28T11:14:06.053Z,39.35
2022-12-28T11:16:37.785Z,40.83
2022-12-28T11:19:06.054Z,45.22
2022-12-28T11:21:35.961Z,42.53
2022-12-28T11:24:06.201Z,41.92
2022-12-28T11:26:35.211Z,42.47
2022-12-28T11:29:03.611Z,40.95
2022-12-28T11:31:35.181Z,40.63
2022-12-28T11:34:05.711Z,42.55
2022-12-28T11:36:41.714Z,39.45
2022-12-28T11:39:42.309Z,39.65
2022-12-28T11:42:38.020Z,35.83
2022-12-28T11:44:58.230Z,42.35
2022-12-28T11:47:33.178Z,36.55
2022-12-28T11:50:42.325Z,37.33
2022-12-28T11:53:24.411Z,40.40
2022-12-28T11:56:04.207Z,45.67
2022-12-28T11:59:01.201Z,49.00
2022-12-28T12:01:44.656Z,46.03
2022-12-28T12:04:40.803Z,44.08
2022-12-28T12:07:41.518Z,44.13
2022-12-28T12:10:35.073Z,43.97
2022-12-28T12:13:44.620Z,40.92
2022-12-28T12:16:27.759Z,38.67
2022-12-28T12:18:58.748Z,39.47
2022-12-28T12:21:32.815Z,40.03
2022-12-28T12:24:10.921Z,41.38
2022-12-28T12:26:45.871Z,43.03
2022-12-28T12:29:18.624Z,41.53
2022-12-28T12:31:51.781Z,42.22
2022-12-28T12:34:27.409Z,42.13
2022-12-28T12:37:31.934Z,37.63
2022-12-28T12:40:26.068Z,44.28
2022-12-28T12:43:10.802Z,37.25
2022-12-28T12:45:53.119Z,38.50
2022-12-28T12:48:35.088Z,37.28
2022-12-28T12:51:27.350Z,32.97
2022-12-28T12:54:28.002Z,32.58
2022-12-28T12:57:00.530Z,33.20
2022-12-28T12:59:48.750Z,36.85
2022-12-28T13:02:41.176Z,34.33
2022-12-28T13:05:17.190Z,35.83
2022-12-28T13:07:45.723Z,30.98
2022-12-28T13:10:19.042Z,30.63
2022-12-28T13:12:47.100Z,32.13
2022-12-28T13:15:19.114Z,32.28
2022-12-28T13:20:57.105Z,26.67
2022-12-28T13:23:26.124Z,25.83
2022-12-28T13:25:56.321Z,24.90
2022-12-28T13:28:29.700Z,24.63
2022-12-28T13:31:02.236Z,24.52
2022-12-28T13:33:31.787Z,22.77
2022-12-28T13:36:12.745Z,19.00
2022-12-28T13:38:40.770Z,16.88
2022-12-28T13:41:20.881Z,17.10
2022-12-28T13:44:23.638Z,14.77
2022-12-28T13:46:56.828Z,16.80
2022-12-28T13:49:28.618Z,18.00
2022-12-28T13:51:57.404Z,16.17
2022-12-28T13:54:25.942Z,16.98
2022-12-28T13:57:20.395Z,15.95
2022-12-28T13:59:46.501Z,15.80
2022-12-28T14:02:18.568Z,15.77
2022-12-28T14:04:53.138Z,15.48
2022-12-28T14:07:24.824Z,17.58
2022-12-28T14:12:23.054Z,16.42
2022-12-28T14:14:51.644Z,15.60
2022-12-28T14:17:20.966Z,15.50
2022-12-28T14:19:51.157Z,13.68
2022-12-28T14:22:33.504Z,15.93
2022-12-28T14:25:07.620Z,17.83
2022-12-28T14:27:38.578Z,16.52
2022-12-28T14:30:09.175Z,14.55
2022-12-28T14:32:42.705Z,17.10
2022-12-28T14:35:19.774Z,15.00
2022-12-28T14:37:52.658Z,15.43
2022-12-28T14:40:27.970Z,16.10
2022-12-28T14:42:56.964Z,15.82
2022-12-28T14:46:04.950Z,13.43
2022-12-28T14:48:33.727Z,17.33
2022-12-28T14:51:05.068Z,17.00
2022-12-28T14:53:33.303Z,19.70
2022-12-28T14:56:05.679Z,17.00
2022-12-28T14:58:40.413Z,18.52
2022-12-28T15:01:10.454Z,20.85
2022-12-28T15:03:53.176Z,18.95
2022-12-28T15:08:51.880Z,20.77
2022-12-28T15:11:20.274Z,20.65
2022-12-28T15:13:49.054Z,22.73
2022-12-28T15:16:18.874Z,23.00
2022-12-28T15:18:47.314Z,22.27
2022-12-28T15:21:17.372Z,24.05
2022-12-28T15:23:49.872Z,20.55
2022-12-28T15:26:18.206Z,22.92
2022-12-28T15:28:46.308Z,21.83
2022-12-28T15:31:16.980Z,24.98
2022-12-28T15:33:45.717Z,25.05
2022-12-28T15:36:17.988Z,26.25
2022-12-28T15:38:48.185Z,25.95
2022-12-28T15:41:34.428Z,23.98
2022-12-28T15:44:02.415Z,25.17
2022-12-28T15:46:30.530Z,29.17
2022-12-28T15:48:58.562Z,26.35
2022-12-28T15:51:26.470Z,29.42
2022-12-28T15:53:55.812Z,30.02
2022-12-28T15:56:26.170Z,30.58
2022-12-28T15:58:56.148Z,30.13
2022-12-28T16:01:25.821Z,26.10
2022-12-28T16:03:55.571Z,26.15
2022-12-28T16:06:24.381Z,31.58
2022-12-28T16:08:57.043Z,31.77
2022-12-28T16:11:26.186Z,33.40
2022-12-28T16:13:56.253Z,30.10
2022-12-28T16:16:25.044Z,32.50
2022-12-28T16:18:56.511Z,29.85
2022-12-28T16:21:25.597Z,33.53
2022-12-28T16:23:53.931Z,30.35
2022-12-28T16:26:23.526Z,36.13
2022-12-28T16:28:51.552Z,32.30
2022-12-28T16:31:24.623Z,34.83
2022-12-28T16:33:56.848Z,33.75
2022-12-28T16:36:25.302Z,37.10
2022-12-28T16:38:53.956Z,35.22
2022-12-28T16:41:24.009Z,40.33
2022-12-28T16:43:52.137Z,37.38
2022-12-28T16:46:20.372Z,35.75
2022-12-28T16:48:48.374Z,37.50
2022-12-28T16:51:16.317Z,38.10
2022-12-28T16:53:44.278Z,41.65
2022-12-28T16:56:12.253Z,42.15
2022-12-28T16:58:44.987Z,41.55
2022-12-28T17:01:15.665Z,40.17
2022-12-28T17:03:43.947Z,44.95
2022-12-28T17:06:12.163Z,43.47
2022-12-28T17:08:40.350Z,47.88
2022-12-28T17:11:10.190Z,52.42
2022-12-28T17:13:38.300Z,57.15
2022-12-28T17:16:08.975Z,55.58
2022-12-28T17:18:37.536Z,54.22
2022-12-28T17:21:07.399Z,48.78
2022-12-28T17:23:35.470Z,50.67
2022-12-28T17:26:03.444Z,54.78
2022-12-28T17:28:31.361Z,57.58
2022-12-28T17:31:10.172Z,60.83
2022-12-28T17:33:40.068Z,58.88
2022-12-28T17:36:09.591Z,63.00
2022-12-28T17:38:37.702Z,59.30
2022-12-28T17:41:10.154Z,66.38
2022-12-28T17:46:07.747Z,53.85
2022-12-28T17:48:35.801Z,61.90
2022-12-28T17:51:10.905Z,56.15
2022-12-28T17:53:40.152Z,64.45
2022-12-28T17:56:10.156Z,67.32
2022-12-28T17:58:38.098Z,65.68
2022-12-28T18:01:08.239Z,67.00
2022-12-28T18:03:36.918Z,67.38
2022-12-28T18:06:05.669Z,59.65
2022-12-28T18:08:34.075Z,70.82
2022-12-28T18:11:02.190Z,66.72
2022-12-28T18:13:30.252Z,68.13
2022-12-28T18:15:58.400Z,70.00
2022-12-28T18:18:27.719Z,74.68
2022-12-28T18:20:59.748Z,74.78
2022-12-28T18:23:28.718Z,76.15
2022-12-28T18:26:02.695Z,74.15
2022-12-28T18:28:30.713Z,70.18
2022-12-28T18:31:02.071Z,70.60
2022-12-28T18:33:32.862Z,63.78
2022-12-28T18:36:02.909Z,72.43
2022-12-28T18:38:31.489Z,61.38
2022-12-28T18:41:00.401Z,57.72
2022-12-28T18:43:28.820Z,69.38
2022-12-28T18:45:58.977Z,67.18
2022-12-28T18:48:28.210Z,65.38
2022-12-28T18:50:59.734Z,57.58
2022-12-28T18:53:29.045Z,71.40
2022-12-28T18:55:58.599Z,74.88
2022-12-28T18:58:27.531Z,68.95
2022-12-28T19:00:55.666Z,72.78
2022-12-28T19:03:23.713Z,74.68
2022-12-28T19:06:02.875Z,70.65
2022-12-28T19:08:31.778Z,68.88
2022-12-28T19:11:00.269Z,72.75
2022-12-28T19:13:28.751Z,72.07
2022-12-28T19:15:56.964Z,68.72
2022-12-28T19:18:24.976Z,71.95
2022-12-28T19:20:59.100Z,70.18
2022-12-28T19:23:27.405Z,74.93
2022-12-28T19:25:59.510Z,75.55
2022-12-28T19:28:27.678Z,69.13
2022-12-28T19:31:01.028Z,68.07
2022-12-28T19:33:32.591Z,69.20
2022-12-28T19:36:02.088Z,70.15
2022-12-28T19:38:30.032Z,66.53
2022-12-28T19:40:58.626Z,69.00
2022-12-28T19:43:26.539Z,66.05
2022-12-28T19:45:54.498Z,56.72
2022-12-28T19:48:22.447Z,52.78
2022-12-28T19:50:50.405Z,58.55
2022-12-28T19:53:19.750Z,58.78
2022-12-28T19:55:47.685Z,56.08
2022-12-28T19:58:15.652Z,59.17
2022-12-28T20:00:43.573Z,57.63
2022-12-28T20:03:12.696Z,53.85
2022-12-28T20:05:40.796Z,53.83
2022-12-28T20:08:08.718Z,54.20
2022-12-28T20:10:38.054Z,52.55
2022-12-28T20:13:06.015Z,50.03
2022-12-28T20:15:34.781Z,47.97
2022-12-28T20:18:02.715Z,49.90
2022-12-28T20:20:45.799Z,48.63
2022-12-28T20:23:18.946Z,45.35
2022-12-28T20:25:52.687Z,47.63
2022-12-28T20:28:20.802Z,43.58
2022-12-28T20:30:49.141Z,45.58
2022-12-28T20:33:18.041Z,44.40
2022-12-28T20:35:57.176Z,43.15
2022-12-28T20:38:25.344Z,42.35
2022-12-28T20:41:04.472Z,47.95
2022-12-28T20:43:31.899Z,45.47
2022-12-28T20:46:00.134Z,45.30
2022-12-28T20:48:28.154Z,42.92
2022-12-28T20:51:00.241Z,42.28
2022-12-28T20:53:28.937Z,36.35
2022-12-28T20:56:08.429Z,43.33
2022-12-28T20:58:36.878Z,43.97
2022-12-28T21:01:05.519Z,45.72
2022-12-28T21:03:33.625Z,43.83
2022-12-28T21:06:01.654Z,39.55
2022-12-28T21:08:30.988Z,35.30
2022-12-28T21:10:59.702Z,37.75
2022-12-28T21:13:29.145Z,39.20
2022-12-28T21:15:57.423Z,40.28
2022-12-28T21:18:25.617Z,41.42
2022-12-28T21:20:57.251Z,41.72
2022-12-28T21:23:25.418Z,38.60
2022-12-28T21:25:53.395Z,40.30
2022-12-28T21:28:21.302Z,39.45
2022-12-28T21:30:55.656Z,39.85
2022-12-28T21:33:25.595Z,39.95
2022-12-28T21:36:04.536Z,43.72
2022-12-28T21:38:33.677Z,40.58
2022-12-28T21:41:02.760Z,43.20
2022-12-28T21:43:31.643Z,41.05
2022-12-28T21:46:03.161Z,41.65
2022-12-28T21:48:32.284Z,40.93
2022-12-28T21:51:05.891Z,45.80
2022-12-28T21:53:34.376Z,45.42
2022-12-28T21:56:02.502Z,48.45
2022-12-28T21:58:30.451Z,51.85
2022-12-28T22:01:16.692Z,49.35
2022-12-28T22:04:03.606Z,54.88
2022-12-28T22:06:31.531Z,51.17
2022-12-28T22:09:17.155Z,54.75
2022-12-28T22:12:02.593Z,62.22
2022-12-28T22:14:30.559Z,61.97
2022-12-28T22:16:58.512Z,66.75
2022-12-28T22:19:28.905Z,65.93
2022-12-28T22:21:56.816Z,68.10
2022-12-28T22:24:24.897Z,72.18
2022-12-28T22:26:52.768Z,72.25
2022-12-28T22:29:21.417Z,71.80
2022-12-28T22:31:49.411Z,63.20
2022-12-28T22:34:17.355Z,70.53
2022-12-28T22:36:46.655Z,77.32
2022-12-28T22:39:14.551Z,69.95
2022-12-28T22:41:42.471Z,70.05
2022-12-28T22:44:11.252Z,71.05
2022-12-28T22:46:39.288Z,72.00
2022-12-28T22:49:07.243Z,70.30
2022-12-28T22:51:35.172Z,62.78
2022-12-28T22:54:04.614Z,61.40
2022-12-28T22:56:32.606Z,65.43
2022-12-28T22:59:04.721Z,69.63
2022-12-28T23:01:34.793Z,66.18
2022-12-28T23:04:02.841Z,64.00
2022-12-28T23:06:30.778Z,66.65
2022-12-28T23:08:58.971Z,65.88
2022-12-28T23:11:37.402Z,68.85
2022-12-28T23:14:28.516Z,69.45
2022-12-28T23:16:56.710Z,74.55
2022-12-28T23:19:42.991Z,67.00
2022-12-28T23:22:32.267Z,62.83
2022-12-28T23:25:17.948Z,61.63
2022-12-28T23:27:48.339Z,58.03
2022-12-28T23:30:18.770Z,56.58
2022-12-28T23:32:46.808Z,57.13
2022-12-28T23:35:15.002Z,52.58
2022-12-28T23:37:42.893Z,51.00
2022-12-28T23:40:13.628Z,52.55
2022-12-28T23:42:42.838Z,49.60
2022-12-28T23:45:14.824Z,53.47
2022-12-28T23:47:43.827Z,47.60
2022-12-28T23:50:13.173Z,41.58
2022-12-28T23:52:41.141Z,38.05
2022-12-28T23:55:10.556Z,38.95
2022-12-28T23:57:38.921Z,37.10
